createdAt,value
2018-09-18T00:23:19.355Z,19.60
2018-09-18T00:54:55.863Z,19.50
2018-09-18T01:00:11.053Z,19.60
2018-09-18T01:10:39.987Z,19.60
2018-09-18T01:15:48.855Z,19.50
2018-09-18T01:31:46.356Z,19.50
2018-09-18T01:36:59.518Z,19.30
2018-09-18T01:42:03.562Z,19.30
2018-09-18T01:58:02.516Z,19.30
2018-09-18T02:08:30.147Z,19.20
2018-09-18T02:19:04.956Z,19.20
2018-09-18T02:24:31.597Z,19.20
2018-09-18T02:29:41.498Z,19.20
2018-09-18T02:40:07.725Z,19.20
2018-09-18T02:50:26.750Z,19.10
2018-09-18T03:16:47.001Z,19.00
2018-09-18T03:21:59.729Z,19.10
2018-09-18T03:48:33.641Z,19.20
2018-09-18T03:53:37.381Z,19.20
2018-09-18T03:58:43.268Z,19.20
2018-09-18T04:09:17.045Z,19.30
2018-09-18T04:14:34.687Z,19.30
2018-09-18T04:19:51.692Z,19.30
2018-09-18T04:25:15.077Z,19.30
2018-09-18T04:30:37.346Z,19.40
2018-09-18T04:35:50.529Z,19.30
2018-09-18T04:41:04.213Z,19.30
2018-09-18T04:46:18.701Z,19.20
2018-09-18T04:51:26.541Z,19.20
2018-09-18T04:56:43.337Z,19.20
2018-09-18T05:01:51.831Z,19.10
2018-09-18T05:07:08.131Z,19.10
2018-09-18T05:12:31.283Z,19.20
2018-09-18T05:17:47.471Z,19.20
2018-09-18T05:23:06.755Z,19.20
2018-09-18T05:28:28.713Z,19.20
2018-09-18T05:39:05.361Z,19.10
2018-09-18T05:44:23.371Z,19.10
2018-09-18T05:49:39.351Z,19.40
2018-09-18T05:54:51.146Z,19.70
2018-09-18T06:00:05.902Z,19.90
2018-09-18T06:05:25.818Z,19.70
2018-09-18T06:15:59.362Z,19.50
2018-09-18T06:21:13.250Z,19.40
2018-09-18T06:26:27.299Z,19.50
2018-09-18T06:31:40.042Z,19.60
2018-09-18T06:36:59.025Z,19.60
2018-09-18T06:42:16.127Z,19.70
2018-09-18T06:47:22.788Z,19.80
2018-09-18T06:52:25.379Z,19.90
2018-09-18T06:57:38.849Z,20.00
2018-09-18T07:02:49.874Z,20.10
2018-09-18T07:07:53.676Z,20.30
2018-09-18T07:13:06.551Z,20.60
2018-09-18T07:18:13.930Z,21.10
2018-09-18T07:23:13.304Z,21.40
2018-09-18T07:28:07.795Z,21.90
2018-09-18T07:33:05.056Z,22.30
2018-09-18T07:38:07.159Z,22.80
2018-09-18T07:43:43.849Z,23.30
2018-09-18T07:48:56.970Z,23.60
2018-09-18T07:59:28.879Z,24.00
2018-09-18T08:04:46.834Z,24.60
2018-09-18T08:09:30.932Z,24.80
2018-09-18T08:14:50.433Z,25.10
2018-09-18T08:19:48.313Z,25.10
2018-09-18T08:24:55.967Z,25.40
2018-09-18T08:30:08.066Z,25.60
2018-09-18T08:34:55.329Z,25.90
2018-09-18T08:39:55.143Z,26.20
2018-09-18T08:44:47.243Z,26.50
2018-09-18T08:49:36.287Z,26.90
2018-09-18T08:54:28.105Z,27.20
2018-09-18T08:59:33.090Z,27.50
2018-09-18T09:04:20.889Z,27.50
2018-09-18T09:09:26.950Z,27.70
2018-09-18T09:14:49.028Z,28.10
2018-09-18T09:20:10.620Z,28.30
2018-09-18T09:25:42.725Z,28.50
2018-09-18T09:31:05.865Z,28.60
2018-09-18T09:35:47.689Z,28.80
2018-09-18T09:41:12.027Z,28.90
2018-09-18T09:46:04.761Z,29.20
2018-09-18T09:51:03.035Z,29.40
2018-09-18T09:55:55.885Z,29.70
2018-09-18T10:01:44.189Z,29.60
2018-09-18T10:06:35.199Z,29.60
2018-09-18T10:11:25.768Z,29.70
2018-09-18T10:16:15.120Z,29.70
2018-09-18T10:21:08.592Z,29.90
2018-09-18T10:26:06.385Z,30.10
2018-09-18T10:31:08.000Z,30.30
2018-09-18T10:36:02.998Z,30.50
2018-09-18T10:40:54.575Z,30.50
2018-09-18T10:46:04.562Z,30.40
2018-09-18T10:50:56.360Z,30.80
2018-09-18T10:55:47.964Z,30.80
2018-09-18T11:00:40.734Z,31.20
2018-09-18T11:05:31.533Z,30.80
2018-09-18T11:10:31.987Z,30.60
2018-09-18T11:15:19.229Z,30.50
2018-09-18T11:20:21.663Z,30.60
2018-09-18T11:25:19.072Z,30.80
2018-09-18T11:30:18.062Z,31.10
2018-09-18T11:35:12.938Z,31.10
2018-09-18T11:40:05.064Z,31.30
2018-09-18T11:45:07.267Z,31.60
2018-09-18T11:49:59.626Z,31.80
2018-09-18T11:55:36.677Z,31.90
2018-09-18T12:00:23.642Z,32.10
2018-09-18T12:05:16.552Z,32.50
2018-09-18T12:10:19.063Z,32.80
2018-09-18T12:15:26.937Z,32.90
2018-09-18T12:21:07.708Z,33.00
2018-09-18T12:26:14.354Z,32.80
2018-09-18T12:31:19.622Z,33.00
2018-09-18T13:38:59.975Z,32.80
2018-09-18T13:44:30.127Z,33.00
2018-09-18T13:49:41.130Z,33.20
2018-09-18T13:55:02.814Z,33.30
2018-09-18T13:59:50.829Z,33.10
2018-09-18T14:04:53.863Z,32.90
2018-09-18T14:09:44.318Z,32.80
2018-09-18T14:14:35.536Z,32.80
2018-09-18T14:19:26.717Z,32.50
2018-09-18T14:24:18.257Z,32.00
2018-09-18T14:29:10.521Z,31.80
2018-09-18T14:34:04.532Z,31.90
2018-09-18T14:38:57.017Z,32.00
2018-09-18T14:43:57.275Z,31.90
2018-09-18T14:48:47.213Z,31.90
2018-09-18T14:53:38.952Z,31.40
2018-09-18T14:58:27.219Z,31.00
2018-09-18T15:03:19.947Z,30.80
2018-09-18T15:08:12.148Z,30.60
2018-09-18T15:13:04.640Z,30.50
2018-09-18T15:17:58.044Z,30.60
2018-09-18T15:22:47.632Z,30.40
2018-09-18T15:27:38.827Z,30.30
2018-09-18T15:32:33.560Z,30.20
2018-09-18T15:37:25.340Z,30.20
2018-09-18T15:42:18.305Z,30.20
2018-09-18T15:47:10.847Z,30.10
2018-09-18T15:52:04.646Z,30.00
2018-09-18T15:56:56.758Z,30.00
2018-09-18T16:01:48.812Z,29.80
2018-09-18T16:06:41.139Z,29.70
2018-09-18T16:11:28.630Z,29.70
2018-09-18T16:16:22.099Z,29.50
2018-09-18T16:21:15.119Z,29.30
2018-09-18T16:26:06.959Z,29.20
2018-09-18T16:30:58.967Z,29.00
2018-09-18T16:35:51.502Z,29.00
2018-09-18T16:40:43.286Z,28.90
2018-09-18T16:45:35.356Z,28.70
2018-09-18T16:50:29.309Z,28.50
2018-09-18T16:55:22.927Z,28.30
2018-09-18T17:00:14.406Z,28.20
2018-09-18T17:05:06.356Z,28.00
2018-09-18T17:09:57.983Z,27.80
2018-09-18T17:14:50.020Z,27.70
2018-09-18T17:19:42.696Z,27.40
2018-09-18T17:24:35.249Z,27.30
2018-09-18T17:29:27.512Z,27.00
2018-09-18T17:34:19.860Z,26.80
2018-09-18T17:39:15.097Z,26.60
2018-09-18T17:44:04.991Z,26.50
2018-09-18T17:48:56.990Z,26.30
2018-09-18T17:53:49.850Z,26.20
2018-09-18T17:58:41.693Z,26.00
2018-09-18T18:03:34.592Z,25.80
2018-09-18T18:08:26.700Z,25.60
2018-09-18T18:13:18.832Z,25.40
2018-09-18T18:18:13.902Z,25.20
2018-09-18T18:23:07.932Z,25.00
2018-09-18T18:28:04.536Z,24.90
2018-09-18T18:32:59.464Z,24.70
2018-09-18T18:37:53.376Z,24.50
2018-09-18T18:42:50.546Z,24.30
2018-09-18T18:47:44.779Z,24.10
2018-09-18T18:52:39.794Z,24.00
2018-09-18T18:57:35.810Z,23.80
2018-09-18T19:02:31.594Z,23.70
2018-09-18T19:07:25.504Z,23.60
2018-09-18T19:12:24.840Z,23.50
2018-09-18T19:17:26.606Z,23.40
2018-09-18T19:22:21.658Z,23.30
2018-09-18T19:27:17.161Z,23.20
2018-09-18T19:32:10.592Z,23.00
2018-09-18T19:37:06.145Z,22.70
2018-09-18T19:42:01.622Z,22.50
2018-09-18T19:46:57.165Z,22.30
2018-09-18T19:51:52.788Z,22.20
2018-09-18T19:56:51.044Z,22.00
2018-09-18T20:01:49.485Z,21.80
2018-09-18T20:06:46.990Z,21.60
2018-09-18T20:12:10.492Z,21.40
2018-09-18T20:17:12.191Z,21.30
2018-09-18T20:22:04.462Z,21.10
2018-09-18T20:27:03.085Z,21.00
2018-09-18T20:32:04.142Z,20.90
2018-09-18T20:37:04.716Z,20.80
2018-09-18T20:42:13.628Z,20.60
2018-09-18T20:47:12.179Z,20.40
2018-09-18T20:52:16.842Z,20.40
2018-09-18T20:57:17.650Z,20.30
2018-09-18T21:02:18.698Z,20.30
2018-09-18T21:07:23.473Z,20.20
2018-09-18T21:12:26.664Z,20.10
2018-09-18T21:17:29.775Z,20.00
2018-09-18T21:22:36.050Z,19.80
2018-09-18T21:27:38.990Z,19.70
2018-09-18T21:32:48.741Z,19.70
2018-09-18T21:37:59.717Z,19.60
2018-09-18T21:43:03.797Z,19.60
2018-09-18T21:48:18.094Z,19.50
2018-09-18T21:53:26.185Z,19.50
2018-09-18T21:58:31.857Z,19.40
2018-09-18T22:03:37.776Z,19.20
2018-09-18T22:08:52.790Z,19.10
2018-09-18T22:14:00.829Z,19.00
2018-09-18T22:19:17.721Z,18.90
2018-09-18T22:24:33.622Z,18.80
2018-09-18T22:29:49.501Z,18.80
2018-09-18T22:35:08.779Z,18.70
2018-09-18T22:40:24.236Z,18.70
2018-09-18T22:45:32.631Z,18.70
2018-09-18T22:50:44.588Z,18.60
2018-09-18T22:55:55.675Z,18.60
2018-09-18T23:01:15.131Z,18.60
2018-09-18T23:06:25.489Z,18.50
2018-09-18T23:11:37.791Z,18.40
2018-09-18T23:16:49.114Z,18.30
2018-09-18T23:22:10.974Z,18.30
2018-09-18T23:27:24.967Z,18.20
2018-09-18T23:32:39.644Z,18.20
2018-09-18T23:43:12.435Z,18.20
2018-09-18T23:48:34.379Z,17.90
2018-09-18T23:53:56.038Z,17.90
2018-09-18T23:59:17.746Z,17.80
